Time;durP1;ratioP1;P1;durP2;ratioP2;P2;SDS_P1;SDS_P2;PMS_P1;PMS_P2;Temp;Humidity;BMP_temperature;BMP_pressure;BME280_temperature;BME280_humidity;BME280_pressure;Samples;Min_cycle;Max_cycle;Signal;HPM_P1;HPM_P2
2021/08/17 00:00:30;;;;;;;5.28;1.83;;;;;;;15.37;42.45;101362.47;2613458;54;20041;-69
2021/08/17 00:02:59;;;;;;;5.18;1.90;;;;;;;15.35;42.58;101359.88;2650101;36;20594;-70
2021/08/17 00:05:30;;;;;;;5.45;1.95;;;;;;;15.34;42.84;101355.38;2613890;54;20042;-70
2021/08/17 00:08:04;;;;;;;3.42;1.90;;;;;;;15.34;42.89;101355.38;2650018;36;20548;-70
2021/08/17 00:10:33;;;;;;;5.82;2.10;;;;;;;15.32;43.05;101354.66;2614281;54;20085;-71
2021/08/17 00:13:03;;;;;;;4.30;2.17;;;;;;;15.31;42.91;101363.09;2650808;36;20420;-70
2021/08/17 00:15:34;;;;;;;4.55;2.53;;;;;;;15.29;43.23;101363.25;2614349;54;20039;-71
2021/08/17 00:18:05;;;;;;;6.47;2.80;;;;;;;15.30;43.15;101358.59;2614484;54;20058;-70
2021/08/17 00:20:35;;;;;;;5.90;2.50;;;;;;;15.28;43.19;101364.25;2613949;54;20041;-70
2021/08/17 00:23:08;;;;;;;4.97;2.40;;;;;;;15.29;43.43;101357.72;2650786;36;20041;-71
2021/08/17 00:25:42;;;;;;;5.60;2.60;;;;;;;15.26;43.36;101366.28;2613593;54;20094;-70
2021/08/17 00:28:13;;;;;;;5.00;2.42;;;;;;;15.25;43.31;101364.53;2614179;54;20041;-71
2021/08/17 00:30:42;;;;;;;6.25;2.47;;;;;;;15.25;43.44;101367.31;2614077;54;20045;-71
2021/08/17 00:33:12;;;;;;;5.57;2.58;;;;;;;15.25;43.46;101375.56;2650074;36;20034;-71
2021/08/17 00:35:42;;;;;;;6.00;2.50;;;;;;;15.27;43.58;101368.03;2613972;54;20537;-70
2021/08/17 00:38:14;;;;;;;6.63;2.97;;;;;;;15.29;43.75;101366.00;2650348;36;20035;-70
2021/08/17 00:40:44;;;;;;;6.45;3.38;;;;;;;15.26;43.35;101360.78;2613523;54;20045;-70
2021/08/17 00:43:14;;;;;;;6.82;3.00;;;;;;;15.27;43.65;101370.78;2650399;36;20034;-69
2021/08/17 00:45:44;;;;;;;7.65;3.53;;;;;;;15.29;43.88;101370.63;2614361;54;20038;-71
2021/08/17 00:48:14;;;;;;;7.97;3.55;;;;;;;15.29;43.93;101365.13;2650006;36;20416;-70
2021/08/17 00:50:43;;;;;;;6.28;3.20;;;;;;;15.30;43.31;101372.38;2613747;54;20059;-70
2021/08/17 00:53:16;;;;;;;8.23;3.53;;;;;;;15.32;44.03;101365.69;2650186;36;20030;-71
2021/08/17 00:55:46;;;;;;;7.80;3.50;;;;;;;15.28;44.04;101360.63;2613706;54;20590;-69
2021/08/17 00:58:15;;;;;;;6.82;3.60;;;;;;;15.31;44.09;101360.34;2650352;36;20038;-71
2021/08/17 01:00:45;;;;;;;7.40;3.65;;;;;;;15.31;43.66;101360.34;2613774;54;20563;-70
2021/08/17 01:03:15;;;;;;;9.70;4.60;;;;;;;15.32;43.77;101367.56;2650339;36;20035;-71
2021/08/17 01:05:45;;;;;;;9.85;3.92;;;;;;;15.31;44.03;101352.06;2612418;47;20034;-71
2021/08/17 01:08:18;;;;;;;8.13;3.70;;;;;;;15.32;43.83;101359.28;2650531;36;20061;-70
2021/08/17 01:10:47;;;;;;;8.63;3.83;;;;;;;15.27;44.07;101361.66;2614029;54;20046;-69
2021/08/17 01:13:17;;;;;;;7.90;4.32;;;;;;;15.28;43.48;101366.16;2649260;36;20042;-70
2021/08/17 01:15:47;;;;;;;8.93;4.43;;;;;;;15.28;43.54;101363.38;2612907;54;20043;-70
2021/08/17 01:18:17;;;;;;;9.95;4.43;;;;;;;15.26;43.81;101366.28;2649687;36;20035;-71
2021/08/17 01:20:51;;;;;;;9.35;3.90;;;;;;;15.28;44.13;101363.38;2613140;54;20042;-69
2021/08/17 01:23:26;;;;;;;8.63;4.50;;;;;;;15.27;44.46;101357.00;2650124;36;20041;-71
2021/08/17 01:25:59;;;;;;;9.73;4.82;;;;;;;15.26;44.32;101352.50;2614251;39;20428;-71
2021/08/17 01:28:29;;;;;;;9.65;4.95;;;;;;;15.22;43.71;101362.13;2649345;36;20042;-71
2021/08/17 01:31:02;;;;;;;10.38;5.65;;;;;;;15.26;44.46;101365.41;2613824;54;20058;-71
2021/08/17 01:33:33;;;;;;;9.80;5.90;;;;;;;15.25;44.47;101363.69;2677440;36;20102;-70
2021/08/17 01:36:03;;;;;;;11.55;5.75;;;;;;;15.23;44.30;101372.09;2613748;39;20465;-70
2021/08/17 01:38:33;;;;;;;11.88;5.78;;;;;;;15.23;44.10;101376.75;2641524;36;20042;-71
2021/08/17 01:41:05;;;;;;;10.20;6.05;;;;;;;15.24;44.34;101362.81;2613613;54;20564;-72
2021/08/17 01:43:35;;;;;;;12.63;6.35;;;;;;;15.20;44.54;101371.53;2649199;36;20041;-70
2021/08/17 01:46:05;;;;;;;13.27;6.60;;;;;;;15.21;44.34;101371.41;2613692;54;20085;-70
2021/08/17 01:48:38;;;;;;;11.95;6.60;;;;;;;15.20;43.97;101366.91;2649939;36;20050;-71
2021/08/17 01:51:08;;;;;;;11.68;6.03;;;;;;;15.19;44.41;101362.41;2613299;54;20038;-69
2021/08/17 01:53:38;;;;;;;14.65;7.40;;;;;;;15.19;44.81;101365.16;2649942;36;20244;-71
2021/08/17 01:56:12;;;;;;;12.02;6.38;;;;;;;15.21;44.49;101354.84;2613807;54;20602;-70
2021/08/17 01:58:43;;;;;;;13.80;6.30;;;;;;;15.19;44.70;101365.16;2649795;36;20061;-70
2021/08/17 02:01:14;;;;;;;13.80;6.68;;;;;;;15.19;44.76;101354.13;2613707;54;20030;-70
2021/08/17 02:03:44;;;;;;;12.03;7.03;;;;;;;15.17;44.95;101367.19;2649962;36;20112;-70
2021/08/17 02:06:14;;;;;;;18.98;8.15;;;;;;;15.19;44.95;101367.91;2613598;54;20832;-71
2021/08/17 02:08:44;;;;;;;14.30;8.10;;;;;;;15.21;44.68;101367.78;2649562;36;20030;-71
2021/08/17 02:11:17;;;;;;;13.90;8.25;;;;;;;15.24;44.72;101365.56;2613196;54;20038;-71
2021/08/17 02:13:46;;;;;;;16.65;8.23;;;;;;;15.21;44.69;101365.00;2649939;36;20287;-71
2021/08/17 02:16:16;;;;;;;15.98;7.50;;;;;;;15.22;44.63;101359.34;2613032;54;20507;-70
2021/08/17 02:18:46;;;;;;;15.20;8.50;;;;;;;15.23;44.63;101372.09;2649896;36;20606;-70
2021/08/17 02:21:15;;;;;;;14.38;7.90;;;;;;;15.24;44.74;101367.44;2613573;39;20418;-69
2021/08/17 02:23:45;;;;;;;14.30;7.28;;;;;;;15.23;44.49;101366.56;2649010;36;20037;-70
2021/08/17 02:26:17;;;;;;;14.75;7.78;;;;;;;15.25;45.10;101364.53;2612129;54;20622;-71
2021/08/17 02:28:47;;;;;;;14.90;7.72;;;;;;;15.21;44.92;101368.63;2650124;36;20034;-70
2021/08/17 02:31:17;;;;;;;15.05;8.85;;;;;;;15.23;44.89;101376.75;2613147;54;20039;-70
2021/08/17 02:33:47;;;;;;;14.05;7.80;;;;;;;15.22;44.94;101369.50;2650261;36;20499;-70
2021/08/17 02:36:16;;;;;;;17.35;8.70;;;;;;;15.22;44.63;101366.75;2614509;39;20450;-71
2021/08/17 02:38:46;;;;;;;16.15;8.57;;;;;;;15.21;44.71;101370.53;2649540;36;20037;-69
2021/08/17 02:41:18;;;;;;;16.50;8.13;;;;;;;15.22;44.93;101375.03;2613009;54;20598;-70
2021/08/17 02:43:48;;;;;;;15.27;8.02;;;;;;;15.16;44.81;101381.97;2649611;36;20563;-71
2021/08/17 02:46:18;;;;;;;18.02;8.38;;;;;;;15.17;44.76;101378.22;2613743;54;20035;-70
2021/08/17 02:48:48;;;;;;;15.88;8.60;;;;;;;15.17;44.91;101383.72;2611523;47;20515;-71
2021/08/17 02:51:17;;;;;;;14.45;8.27;;;;;;;15.18;45.13;101384.59;2613118;54;20031;-71
2021/08/17 02:53:47;;;;;;;16.42;8.98;;;;;;;15.18;45.02;101387.34;2613541;54;20611;-71
2021/08/17 02:56:19;;;;;;;18.70;9.85;;;;;;;15.21;45.34;101378.78;2612104;54;20042;-70
2021/08/17 02:58:49;;;;;;;17.23;9.05;;;;;;;15.16;45.13;101381.97;2650339;36;20039;-69
2021/08/17 03:01:19;;;;;;;16.13;7.93;;;;;;;15.18;45.34;101381.84;2613855;39;20447;-71
2021/08/17 03:03:49;;;;;;;14.98;8.23;;;;;;;15.18;44.90;101377.19;2649222;36;20056;-70
2021/08/17 03:06:19;;;;;;;15.13;8.13;;;;;;;15.19;45.08;101383.56;2613457;54;20039;-70
2021/08/17 03:08:48;;;;;;;17.33;9.02;;;;;;;15.19;45.13;101378.06;2649357;36;20045;-71
2021/08/17 03:11:21;;;;;;;16.05;8.85;;;;;;;15.20;45.18;101388.94;2613296;54;20041;-71
2021/08/17 03:13:50;;;;;;;15.57;8.35;;;;;;;15.17;44.94;101388.38;2649395;36;20038;-70
2021/08/17 03:16:20;;;;;;;15.45;8.27;;;;;;;15.18;45.39;101390.09;2613372;54;20159;-70
2021/08/17 03:18:50;;;;;;;15.57;7.97;;;;;;;15.18;45.19;101388.22;2649362;36;20053;-70
2021/08/17 03:21:20;;;;;;;15.07;8.05;;;;;;;15.17;45.15;101380.97;2612869;54;20039;-70
2021/08/17 03:23:50;;;;;;;14.93;8.13;;;;;;;15.17;45.15;101383.72;2650146;36;20039;-71
2021/08/17 03:26:22;;;;;;;14.20;7.68;;;;;;;15.19;45.33;101380.81;2614274;54;20034;-71
2021/08/17 03:28:52;;;;;;;15.30;8.25;;;;;;;15.15;45.29;101379.41;2613963;54;20099;-70
2021/08/17 03:31:22;;;;;;;13.13;7.70;;;;;;;15.17;45.27;101380.97;2614554;39;20815;-72
2021/08/17 03:33:52;;;;;;;15.98;8.60;;;;;;;15.16;44.94;101381.97;2642236;36;20035;-71
2021/08/17 03:36:22;;;;;;;16.20;7.80;;;;;;;15.16;45.40;101379.22;2614072;54;20031;-69
2021/08/17 03:38:51;;;;;;;14.00;7.60;;;;;;;15.16;45.16;101381.97;2614044;39;20422;-71
2021/08/17 03:41:24;;;;;;;17.90;8.38;;;;;;;15.18;45.32;101377.19;2613439;54;20045;-71
2021/08/17 03:43:53;;;;;;;14.25;7.50;;;;;;;15.14;45.48;101384.03;2650363;36;20087;-70
2021/08/17 03:46:23;;;;;;;14.27;7.78;;;;;;;15.15;45.51;101373.88;2614031;54;20039;-70
2021/08/17 03:48:53;;;;;;;15.32;8.15;;;;;;;15.15;45.47;101379.41;2650192;36;20034;-69
2021/08/17 03:51:23;;;;;;;15.00;8.23;;;;;;;15.15;45.72;101374.72;2614021;54;20588;-71
2021/08/17 03:53:52;;;;;;;13.88;7.40;;;;;;;15.16;45.29;101375.59;2649672;36;20057;-71
2021/08/17 03:56:25;;;;;;;15.73;7.55;;;;;;;15.18;45.40;101368.94;2613955;54;20046;-71
2021/08/17 03:58:55;;;;;;;14.88;7.88;;;;;;;15.14;45.55;101373.03;2650210;36;20037;-72
2021/08/17 04:01:24;;;;;;;15.43;7.75;;;;;;;15.15;45.28;101366.47;2613929;46;20085;-71
2021/08/17 04:03:54;;;;;;;14.57;7.65;;;;;;;15.17;45.26;101375.44;2649810;36;20083;-70
2021/08/17 04:06:24;;;;;;;13.60;7.85;;;;;;;15.16;44.94;101370.97;2614065;54;20045;-70
2021/08/17 04:08:54;;;;;;;13.60;7.65;;;;;;;15.17;45.17;101369.94;2650292;36;20041;-69
2021/08/17 04:11:26;;;;;;;15.38;7.88;;;;;;;15.18;45.38;101373.56;2614098;54;20042;-71
2021/08/17 04:13:56;;;;;;;15.20;8.10;;;;;;;15.14;45.63;101378.53;2650117;36;20042;-70
2021/08/17 04:16:26;;;;;;;15.10;7.60;;;;;;;15.14;45.13;101380.41;2614033;54;20039;-70
2021/08/17 04:18:56;;;;;;;14.82;7.90;;;;;;;15.13;45.55;101373.16;2650549;36;20448;-71
2021/08/17 04:21:25;;;;;;;14.70;8.20;;;;;;;15.12;45.16;101374.19;2614349;54;20039;-70
2021/08/17 04:23:56;;;;;;;13.18;7.25;;;;;;;15.10;44.94;101381.72;2650051;36;20030;-71
2021/08/17 04:26:29;;;;;;;13.43;6.93;;;;;;;15.10;45.11;101379.84;2614126;54;20034;-70
2021/08/17 04:28:59;;;;;;;;;;;;;;;14.81;45.98;101373.53;2650533;36;20037;-71
2021/08/17 04:31:29;;;;;;;11.40;6.88;;;;;;;15.01;45.35;101376.09;2613251;47;20513;-70
2021/08/17 04:33:58;;;;;;;14.40;7.63;;;;;;;15.03;45.80;101376.81;2649935;36;20034;-71
2021/08/17 04:36:28;;;;;;;14.65;7.97;;;;;;;15.04;45.38;101380.44;2614023;54;20039;-71
2021/08/17 04:38:58;;;;;;;13.65;7.72;;;;;;;15.03;45.38;101390.59;2650287;36;20564;-71
2021/08/17 04:41:30;;;;;;;13.02;7.22;;;;;;;15.06;45.42;101397.69;2613762;54;20045;-69
2021/08/17 04:44:00;;;;;;;12.18;6.80;;;;;;;15.02;45.79;101391.59;2650292;36;20034;-71
2021/08/17 04:46:29;;;;;;;15.80;7.80;;;;;;;15.04;45.80;101394.22;2614108;54;20038;-70
2021/08/17 04:48:59;;;;;;;15.02;8.07;;;;;;;15.05;45.61;101405.09;2650026;36;20038;-71
2021/08/17 04:51:30;;;;;;;15.07;8.13;;;;;;;15.05;45.48;101396.81;2613859;54;20043;-70
2021/08/17 04:53:59;;;;;;;16.10;8.27;;;;;;;15.03;45.55;101396.09;2650401;36;20054;-69
2021/08/17 04:56:32;;;;;;;17.60;8.35;;;;;;;15.05;45.32;101404.22;2613944;54;20571;-71
2021/08/17 04:59:01;;;;;;;14.30;7.18;;;;;;;14.97;45.89;101393.06;2649521;36;20049;-70
2021/08/17 05:01:31;;;;;;;15.40;7.95;;;;;;;14.97;45.67;101404.97;2613760;54;20045;-70
2021/08/17 05:04:04;;;;;;;17.25;8.65;;;;;;;14.97;45.85;101409.59;2649723;36;20229;-70
2021/08/17 05:06:33;;;;;;;14.55;7.97;;;;;;;14.96;46.02;101417.00;2613218;54;20038;-70
2021/08/17 05:09:04;;;;;;;15.65;8.02;;;;;;;14.95;46.05;101429.03;2650037;36;20045;-70
2021/08/17 05:11:36;;;;;;;13.40;7.75;;;;;;;14.96;46.42;101410.63;2613959;54;20560;-71
2021/08/17 05:14:07;;;;;;;15.68;7.70;;;;;;;14.93;46.05;101413.66;2631409;36;20086;-70
2021/08/17 05:19:18;;;;;;;17.15;9.00;;;;;;;14.93;46.13;101420.03;2651216;36;20759;-69
2021/08/17 05:21:48;;;;;;;15.43;8.40;;;;;;;14.93;46.25;101408.16;2615091;54;20056;-69
2021/08/17 05:24:18;;;;;;;15.93;8.45;;;;;;;14.93;46.13;101409.00;2651224;36;20053;-69
2021/08/17 05:26:51;;;;;;;13.30;7.40;;;;;;;14.95;46.33;101404.22;2614978;54;20138;-69
2021/08/17 05:29:21;;;;;;;;;;;;;;;14.68;46.35;101410.47;2648861;36;20034;-69
2021/08/17 05:31:51;;;;;;;13.75;7.93;;;;;;;14.88;45.84;101407.72;2615301;54;19946;-68
2021/08/17 05:34:21;;;;;;;18.10;9.25;;;;;;;14.90;45.74;101394.69;2651507;36;20031;-69
2021/08/17 05:36:51;;;;;;;17.50;8.43;;;;;;;14.88;46.27;101404.97;2614573;54;20049;-69
2021/08/17 05:39:21;;;;;;;16.05;8.43;;;;;;;14.84;46.18;101418.16;2651454;36;20042;-70
2021/08/17 05:41:54;;;;;;;15.02;7.93;;;;;;;14.85;46.64;101422.66;2615920;39;20438;-70
2021/08/17 05:44:24;;;;;;;15.55;7.90;;;;;;;14.79;46.33;101433.41;2651313;36;20038;-70
2021/08/17 05:46:54;;;;;;;15.27;7.75;;;;;;;14.79;46.07;101430.63;2614786;54;20041;-69
2021/08/17 05:49:24;;;;;;;13.65;7.45;;;;;;;14.76;46.71;101422.63;2650845;36;20047;-70
2021/08/17 05:51:55;;;;;;;16.80;8.20;;;;;;;14.78;46.51;101434.41;2615814;54;20038;-70
2021/08/17 05:54:25;;;;;;;15.57;8.23;;;;;;;14.76;46.67;101436.41;2651640;36;20447;-70
2021/08/17 05:56:58;;;;;;;15.10;7.70;;;;;;;14.78;46.97;101428.91;2614792;54;20564;-70
2021/08/17 05:59:28;;;;;;;;;;;;;;;14.50;47.16;101430.59;2632896;36;20068;-69
2021/08/17 06:02:00;;;;;;;13.10;6.53;;;;;;;14.72;46.64;101440.47;2615199;54;20003;-70
2021/08/17 06:04:31;;;;;;;17.02;7.63;;;;;;;14.73;46.88;101445.84;2633074;36;20034;-69
2021/08/17 06:07:01;;;;;;;17.27;8.90;;;;;;;14.77;46.81;101444.56;2623423;36;20034;-70
2021/08/17 06:09:31;;;;;;;15.98;7.80;;;;;;;14.76;46.76;101445.53;2632748;36;20043;-70
2021/08/17 06:12:04;;;;;;;16.55;8.82;;;;;;;14.81;47.18;101434.13;2628252;36;20050;-70
2021/08/17 06:14:35;;;;;;;16.27;8.63;;;;;;;14.77;47.10;101440.88;2633169;36;20170;-70
2021/08/17 06:17:05;;;;;;;14.98;8.00;;;;;;;14.79;47.49;101439.78;2650808;36;20049;-71
2021/08/17 06:19:36;;;;;;;14.25;8.10;;;;;;;14.80;47.36;101432.38;2615005;39;20437;-70
2021/08/17 06:22:06;;;;;;;16.02;8.35;;;;;;;14.83;47.34;101438.44;2651719;36;20130;-69
2021/08/17 06:24:36;;;;;;;18.17;8.85;;;;;;;14.84;47.15;101436.56;2614669;54;20039;-70
2021/08/17 06:27:08;;;;;;;15.73;8.43;;;;;;;14.87;47.58;101433.53;2650740;36;20042;-70
2021/08/17 06:29:52;;;;;;;13.85;7.28;;;;;;;14.86;47.30;101429.03;2614411;54;20062;-70
2021/08/17 06:32:23;;;;;;;17.25;8.60;;;;;;;14.91;47.99;101438.59;2650531;36;20020;-70
2021/08/17 06:34:53;;;;;;;17.17;9.27;;;;;;;14.93;47.40;101432.94;2613963;54;20034;-70
2021/08/17 06:37:23;;;;;;;16.10;8.52;;;;;;;14.94;47.84;101432.78;2651107;36;20015;-70
2021/08/17 06:39:53;;;;;;;17.85;8.55;;;;;;;14.97;47.51;101421.50;2614298;54;20134;-69
2021/08/17 06:42:26;;;;;;;16.83;8.93;;;;;;;15.03;48.15;101422.78;2651622;36;20016;-70
2021/08/17 06:44:56;;;;;;;;;;;;;;;14.78;47.81;101426.16;2615092;54;20143;-69
2021/08/17 06:47:26;;;;;;;15.98;7.55;;;;;;;15.01;47.79;101424.81;2650569;36;19950;-69
2021/08/17 06:49:56;;;;;;;15.30;8.65;;;;;;;15.07;47.76;101411.28;2614593;54;20046;-70
2021/08/17 06:52:26;;;;;;;14.48;8.13;;;;;;;15.10;47.85;101421.16;2651726;36;20046;-70
2021/08/17 06:54:56;;;;;;;14.88;7.15;;;;;;;15.12;47.84;101413.63;2614314;54;20074;-70
2021/08/17 06:57:29;;;;;;;15.07;7.70;;;;;;;15.15;48.17;101413.31;2650671;36;20035;-70
2021/08/17 06:59:59;;;;;;;17.13;8.40;;;;;;;15.16;48.26;101415.06;2615160;54;20065;-70
2021/08/17 07:02:32;;;;;;;16.02;8.00;;;;;;;15.20;47.81;101412.88;2651921;36;20053;-69
2021/08/17 07:05:23;;;;;;;15.75;7.70;;;;;;;15.22;48.18;101422.75;2614084;54;20038;-69
2021/08/17 07:07:53;;;;;;;16.05;7.75;;;;;;;15.26;48.34;101434.31;2651554;36;20695;-69
2021/08/17 07:10:23;;;;;;;14.25;7.85;;;;;;;15.29;48.18;101425.75;2615378;54;20039;-69
2021/08/17 07:13:16;;;;;;;15.10;8.38;;;;;;;15.33;48.28;101427.19;2651494;36;20034;-70
2021/08/17 07:15:47;;;;;;;15.98;7.97;;;;;;;15.37;48.27;101421.25;2614753;54;20122;-70
2021/08/17 07:18:17;;;;;;;15.73;7.47;;;;;;;15.40;48.25;101420.06;2650975;36;20043;-70
2021/08/17 07:20:48;;;;;;;16.20;7.60;;;;;;;15.44;48.16;101414.09;2615277;54;20079;-70
2021/08/17 07:23:19;;;;;;;17.00;8.32;;;;;;;15.48;48.33;101417.41;2651733;36;20038;-70
2021/08/17 07:25:50;;;;;;;17.45;8.90;;;;;;;15.53;48.41;101419.72;2615245;54;20564;-70
2021/08/17 07:28:23;;;;;;;17.58;8.38;;;;;;;15.57;48.39;101422.03;2652128;36;20421;-70
2021/08/17 07:30:53;;;;;;;13.55;7.68;;;;;;;15.58;48.51;101417.38;2615386;54;20629;-71
2021/08/17 07:33:24;;;;;;;16.10;8.35;;;;;;;15.61;48.39;101417.97;2652084;36;20034;-70
2021/08/17 07:35:55;;;;;;;17.13;8.32;;;;;;;15.64;48.55;101423.19;2615255;54;20031;-70
2021/08/17 07:38:25;;;;;;;15.77;7.85;;;;;;;15.67;47.94;101430.28;2652273;36;20417;-70
2021/08/17 07:40:55;;;;;;;14.40;7.35;;;;;;;15.69;48.57;101431.88;2614890;54;20069;-71
2021/08/17 07:43:28;;;;;;;15.05;8.23;;;;;;;15.75;48.61;101424.88;2651111;36;20774;-70
2021/08/17 07:46:01;;;;;;;16.88;8.43;;;;;;;15.75;48.30;101413.84;2615287;39;20522;-69
2021/08/17 07:48:51;;;;;;;16.33;8.77;;;;;;;15.76;48.49;101413.69;2651414;36;20575;-70
2021/08/17 07:51:22;;;;;;;14.77;8.23;;;;;;;15.79;48.04;101418.94;2615751;39;20405;-70
2021/08/17 07:53:52;;;;;;;15.50;9.05;;;;;;;15.81;48.38;101411.34;2651324;36;20034;-70
2021/08/17 07:56:22;;;;;;;18.73;8.88;;;;;;;15.84;48.12;101428.63;2615043;54;20034;-70
2021/08/17 07:58:54;;;;;;;15.38;8.00;;;;;;;15.88;47.96;101430.94;2651625;36;20203;-69
2021/08/17 08:01:24;;;;;;;13.45;8.13;;;;;;;15.87;48.11;101431.09;2615367;54;20069;-70
2021/08/17 08:03:56;;;;;;;13.63;7.75;;;;;;;15.90;48.43;101445.44;2652076;36;20406;-70
2021/08/17 08:06:26;;;;;;;16.15;8.68;;;;;;;15.94;48.50;101437.72;2615172;54;20038;-70
2021/08/17 08:08:56;;;;;;;14.02;8.38;;;;;;;15.95;48.52;101444.97;2651240;36;20047;-69
2021/08/17 08:11:26;;;;;;;16.08;8.13;;;;;;;15.99;48.19;101441.75;2615366;54;20039;-70
2021/08/17 08:13:59;;;;;;;15.32;8.82;;;;;;;16.07;48.15;101446.50;2651533;36;20659;-70
2021/08/17 08:16:30;;;;;;;16.05;8.38;;;;;;;16.07;47.84;101438.22;2614730;54;20042;-69
2021/08/17 08:19:01;;;;;;;17.08;8.55;;;;;;;16.10;48.14;101418.59;2651237;36;20038;-70
2021/08/17 08:21:32;;;;;;;14.90;8.32;;;;;;;16.13;47.99;101419.16;2614843;51;20030;-70
2021/08/17 08:24:02;;;;;;;16.88;9.00;;;;;;;16.15;47.99;101428.13;2651286;36;20642;-70
2021/08/17 08:26:33;;;;;;;16.17;9.23;;;;;;;16.17;47.51;101420.59;2615043;54;20038;-70
2021/08/17 08:29:05;;;;;;;14.02;7.95;;;;;;;16.23;48.06;101408.03;2651307;36;20129;-70
2021/08/17 08:31:35;;;;;;;15.52;8.35;;;;;;;16.22;48.06;101403.53;2615076;39;20569;-70
2021/08/17 08:34:06;;;;;;;13.88;7.38;;;;;;;16.25;47.98;101411.53;2651311;36;20030;-71
2021/08/17 08:36:36;;;;;;;14.27;8.32;;;;;;;16.28;47.92;101411.22;2615116;54;20174;-70
2021/08/17 08:39:06;;;;;;;16.67;8.00;;;;;;;16.31;47.70;101418.28;2651482;36;20042;-70
2021/08/17 08:41:37;;;;;;;15.75;8.05;;;;;;;16.34;48.06;101418.00;2615576;54;20177;-70
2021/08/17 08:44:10;;;;;;;15.68;8.55;;;;;;;16.43;47.74;101422.59;2651881;36;20034;-70
2021/08/17 08:46:40;;;;;;;;;;;;;;;16.15;48.13;101422.63;2615958;54;20043;-71
2021/08/17 08:49:11;;;;;;;14.88;7.30;;;;;;;16.41;47.65;101419.97;2654265;36;20375;-70
2021/08/17 08:51:41;;;;;;;13.57;7.28;;;;;;;16.49;47.39;101419.22;2615745;54;20187;-70
2021/08/17 08:54:11;;;;;;;16.05;7.95;;;;;;;16.54;47.65;101422.38;2654014;36;20034;-70
2021/08/17 08:56:51;;;;;;;13.52;7.50;;;;;;;16.56;48.09;101415.66;2618976;54;20042;-70
2021/08/17 08:59:24;;;;;;;14.43;7.82;;;;;;;16.65;47.87;101432.31;2651209;36;20034;-70
2021/08/17 09:02:06;;;;;;;14.68;7.47;;;;;;;16.70;47.69;101429.97;2614125;47;20525;-71
2021/08/17 09:05:21;;;;;;;14.32;7.93;;;;;;;16.79;47.16;101440.06;2636494;36;20545;-71
2021/08/17 09:07:53;;;;;;;12.75;7.25;;;;;;;16.80;47.58;101439.00;2654883;36;20079;-70
2021/08/17 09:10:24;;;;;;;;;;;;;;;16.60;47.84;101441.09;2616922;54;20545;-70
2021/08/17 09:12:56;;;;;;;12.93;6.82;;;;;;;16.87;46.97;101440.13;2653047;36;19970;-70
2021/08/17 09:15:31;;;;;;;11.57;6.35;;;;;;;16.93;46.84;101428.44;2616005;54;20077;-70
2021/08/17 09:18:04;;;;;;;14.02;6.95;;;;;;;16.96;47.33;101435.53;2653243;36;20422;-71
2021/08/17 09:23:38;;;;;;;12.38;6.60;;;;;;;17.00;46.88;101428.66;2652842;36;20098;-71
2021/08/17 09:26:24;;;;;;;15.43;6.57;;;;;;;17.07;46.52;101415.91;2616270;54;20034;-69
2021/08/17 09:28:58;;;;;;;11.48;6.50;;;;;;;17.10;46.44;101416.47;2652899;36;20050;-71
2021/08/17 09:31:39;;;;;;;12.70;6.88;;;;;;;17.16;46.05;101409.41;2616665;54;20143;-71
2021/08/17 09:34:12;;;;;;;13.50;7.13;;;;;;;17.17;45.82;101391.81;2653167;36;20038;-71
2021/08/17 09:36:45;;;;;;;12.60;7.15;;;;;;;17.18;45.97;101402.72;2616421;54;20154;-70
2021/08/17 09:39:31;;;;;;;12.65;7.95;;;;;;;17.23;45.64;101402.22;2634479;36;20030;-69
2021/08/17 09:42:26;;;;;;;12.02;6.57;;;;;;;17.19;45.56;101401.69;2629264;36;20126;-71
2021/08/17 09:45:12;;;;;;;12.07;7.32;;;;;;;17.22;45.35;101404.09;2580639;39;2004197;-69
2021/08/17 09:47:47;;;;;;;10.13;5.97;;;;;;;17.23;44.86;101419.66;2652308;36;20034;-71
2021/08/17 09:50:19;;;;;;;13.25;7.68;;;;;;;17.22;45.70;101412.41;2616227;54;20069;-71
2021/08/17 09:52:49;;;;;;;12.27;6.88;;;;;;;17.23;45.16;101407.75;2653333;36;20030;-71
2021/08/17 09:55:22;;;;;;;14.23;7.32;;;;;;;17.25;45.16;101408.44;2616281;54;20038;-71
2021/08/17 09:57:54;;;;;;;13.05;6.88;;;;;;;17.24;44.99;101417.78;2652864;36;20595;-70
2021/08/17 10:00:27;;;;;;;11.75;7.15;;;;;;;17.24;45.43;101423.31;2616409;54;20050;-71
2021/08/17 10:03:00;;;;;;;13.35;7.47;;;;;;;17.28;44.89;101422.88;2653036;36;20067;-70
2021/08/17 10:05:30;;;;;;;15.45;8.52;;;;;;;17.28;44.44;101410.94;2616608;54;20033;-71
2021/08/17 10:08:01;;;;;;;14.48;8.02;;;;;;;17.29;44.42;101434.75;2652895;36;20069;-71
2021/08/17 10:10:31;;;;;;;13.60;8.52;;;;;;;17.27;44.40;101426.66;2616289;54;20039;-71
2021/08/17 10:13:03;;;;;;;11.50;6.60;;;;;;;17.26;44.88;101435.06;2652747;36;20599;-71
2021/08/17 10:15:33;;;;;;;12.95;7.47;;;;;;;17.22;44.75;101437.28;2615581;39;20512;-71
2021/08/17 10:18:08;;;;;;;13.60;7.97;;;;;;;17.27;44.41;101431.31;2650636;36;20039;-70
2021/08/17 10:20:41;;;;;;;13.38;7.38;;;;;;;17.27;44.85;101434.94;2616289;54;20160;-70
2021/08/17 10:23:15;;;;;;;15.38;7.57;;;;;;;17.26;44.28;101424.00;2652827;36;20023;-70
2021/08/17 10:25:47;;;;;;;13.48;7.95;;;;;;;17.28;44.26;101424.75;2616346;54;20034;-70
2021/08/17 10:28:33;;;;;;;15.02;8.27;;;;;;;17.28;44.05;101419.22;2652944;36;20034;-71
2021/08/17 10:31:26;;;;;;;14.82;7.78;;;;;;;17.28;43.63;101409.03;2616338;54;20034;-70
2021/08/17 10:34:11;;;;;;;14.73;7.97;;;;;;;17.26;44.40;101408.28;2653153;36;20082;-71
2021/08/17 10:36:44;;;;;;;12.80;7.20;;;;;;;17.28;44.13;101419.22;2616394;54;20041;-71
2021/08/17 10:39:34;;;;;;;10.60;6.50;;;;;;;17.25;43.77;101420.38;2652949;36;20382;-71
2021/08/17 10:42:24;;;;;;;11.25;6.82;;;;;;;17.25;43.80;101416.75;2653117;36;20035;-70
2021/08/17 10:44:55;;;;;;;13.07;7.30;;;;;;;17.24;44.01;101410.34;2616368;54;20106;-70
2021/08/17 10:47:43;;;;;;;10.77;6.10;;;;;;;17.24;43.56;101406.72;2652583;36;20045;-70
2021/08/17 10:50:32;;;;;;;12.68;7.38;;;;;;;17.23;43.58;101392.03;2616466;54;20057;-71
2021/08/17 10:53:40;;;;;;;11.65;7.03;;;;;;;17.21;44.02;101388.53;2653021;36;20046;-71
2021/08/17 10:56:15;;;;;;;12.82;6.75;;;;;;;17.26;43.70;101402.75;2616014;54;20043;-71
2021/08/17 10:58:47;;;;;;;11.25;6.78;;;;;;;17.26;43.59;101400.00;2652361;36;20147;-71
2021/08/17 11:01:42;;;;;;;12.38;6.95;;;;;;;17.22;43.82;101398.56;2616572;54;20064;-71
2021/08/17 11:04:21;;;;;;;11.43;6.10;;;;;;;17.26;43.40;101396.38;2652773;36;20030;-71
2021/08/17 11:06:55;;;;;;;10.90;6.07;;;;;;;17.26;43.17;101388.94;2616018;54;20030;-71
2021/08/17 11:09:28;;;;;;;12.70;6.53;;;;;;;17.27;43.41;101389.84;2652316;36;20114;-71
2021/08/17 11:12:00;;;;;;;10.15;6.25;;;;;;;17.26;43.46;101396.38;2616653;54;20131;-69
2021/08/17 11:14:33;;;;;;;11.70;6.40;;;;;;;17.24;43.19;101390.13;2634237;36;20143;-70
2021/08/17 11:17:05;;;;;;;11.27;6.20;;;;;;;17.21;43.18;101388.53;2643165;36;20032;-70
2021/08/17 11:19:38;;;;;;;9.85;6.13;;;;;;;17.20;43.52;101385.97;2615849;54;20264;-70
2021/08/17 11:22:12;;;;;;;10.80;5.72;;;;;;;17.22;43.25;101392.19;2652884;36;20027;-71
2021/08/17 11:24:48;;;;;;;8.90;5.75;;;;;;;17.21;43.21;101399.59;2615979;54;20687;-70
2021/08/17 11:27:21;;;;;;;11.13;5.32;;;;;;;17.20;42.67;101386.84;2652854;36;20482;-70
2021/08/17 11:29:53;;;;;;;9.93;5.15;;;;;;;17.19;42.81;101384.22;2614340;54;20045;-71
2021/08/17 11:32:43;;;;;;;8.07;4.75;;;;;;;17.15;42.85;101378.16;2652896;36;20071;-69
2021/08/17 11:35:16;;;;;;;8.45;5.30;;;;;;;17.16;42.91;101377.13;2616081;54;20042;-71
2021/08/17 11:37:50;;;;;;;9.88;5.18;;;;;;;17.14;43.14;101379.16;2652283;36;20038;-70
2021/08/17 11:40:23;;;;;;;8.23;4.80;;;;;;;17.13;42.79;101384.84;2615946;54;20023;-71
2021/08/17 11:42:56;;;;;;;9.00;5.20;;;;;;;17.14;42.96;101392.13;2653151;36;20637;-70
2021/08/17 11:45:29;;;;;;;7.90;4.75;;;;;;;17.14;42.91;101395.75;2616974;54;20038;-70
2021/08/17 11:48:03;;;;;;;8.00;4.90;;;;;;;17.14;42.84;101397.66;2653465;36;20426;-70